createdAt,value
2019-01-19T00:00:10.043Z,15.6
2019-01-19T00:10:09.243Z,15.6
2019-01-19T00:20:08.451Z,15.6
2019-01-19T00:30:07.656Z,15.6
2019-01-19T00:40:06.864Z,15.6
2019-01-19T00:50:06.071Z,15.6
2019-01-19T01:00:05.279Z,15.7
2019-01-19T01:10:04.485Z,15.7
2019-01-19T01:20:03.693Z,15.7
2019-01-19T01:30:02.898Z,15.7
2019-01-19T01:40:02.104Z,15.7
2019-01-19T01:50:01.310Z,15.8
2019-01-19T02:00:00.526Z,15.8
2019-01-19T02:09:59.722Z,15.8
2019-01-19T02:19:58.935Z,15.8
2019-01-19T02:29:58.135Z,15.8
2019-01-19T02:39:57.340Z,15.8
2019-01-19T02:49:56.547Z,15.8
2019-01-19T02:59:55.758Z,15.9
2019-01-19T03:09:54.964Z,15.9
2019-01-19T03:19:54.167Z,15.8
2019-01-19T03:29:53.373Z,15.8
2019-01-19T03:39:52.574Z,15.9
2019-01-19T03:49:51.789Z,15.9
2019-01-19T03:59:51.006Z,16.1
2019-01-19T04:09:50.205Z,16
2019-01-19T04:19:49.415Z,16
2019-01-19T04:29:48.620Z,16
2019-01-19T04:39:47.828Z,16
2019-01-19T04:49:47.032Z,15.9
2019-01-19T04:59:46.237Z,15.9
2019-01-19T05:09:45.453Z,15.9
2019-01-19T05:19:44.649Z,15.9
2019-01-19T05:29:43.853Z,15.9
2019-01-19T05:39:43.059Z,15.9
2019-01-19T05:49:42.263Z,15.9
2019-01-19T05:59:41.517Z,15.9
2019-01-19T06:09:40.675Z,15.9
2019-01-19T06:19:39.882Z,15.9
2019-01-19T06:29:39.081Z,15.9
2019-01-19T06:39:38.293Z,15.9
2019-01-19T06:49:37.495Z,15.9
2019-01-19T06:59:36.699Z,15.9
2019-01-19T07:09:35.909Z,15.8
2019-01-19T07:19:35.120Z,14.9
2019-01-19T07:29:34.333Z,15.1
2019-01-19T07:39:33.547Z,15
2019-01-19T07:49:32.760Z,14.6
2019-01-19T07:59:31.970Z,14.4
2019-01-19T08:09:31.184Z,14.4
2019-01-19T08:19:30.405Z,14.4
2019-01-19T08:29:29.611Z,14.5
2019-01-19T08:39:28.823Z,14.6
2019-01-19T08:49:28.044Z,14.8
2019-01-19T08:59:27.247Z,14.9
2019-01-19T09:09:26.463Z,15.1
2019-01-19T09:19:25.674Z,15.2
2019-01-19T09:29:24.891Z,15.4
2019-01-19T09:39:24.104Z,15.5
2019-01-19T09:49:23.319Z,15.8
2019-01-19T09:59:22.534Z,15.8
2019-01-19T10:09:21.753Z,16
2019-01-19T10:19:20.972Z,16.3
2019-01-19T10:29:20.187Z,16.4
2019-01-19T10:39:19.406Z,16.3
2019-01-19T10:49:18.629Z,16.3
2019-01-19T10:59:17.843Z,16
2019-01-19T11:09:17.059Z,16.1
2019-01-19T11:19:16.309Z,16.4
2019-01-19T11:29:15.490Z,16.6
2019-01-19T11:39:14.703Z,16.8
2019-01-19T11:49:13.919Z,16.9
2019-01-19T11:59:13.128Z,17.1
2019-01-19T12:09:12.342Z,17.2
2019-01-19T12:19:11.565Z,17.1
2019-01-19T12:29:10.773Z,17.3
2019-01-19T12:39:09.989Z,17.3
2019-01-19T12:49:09.211Z,17.4
2019-01-19T12:59:08.422Z,17.3
2019-01-19T13:09:12.429Z,17.4
2019-01-19T13:19:06.861Z,17.4
2019-01-19T13:29:06.077Z,17.5
2019-01-19T13:39:05.296Z,17.6
2019-01-19T13:49:04.504Z,17.6
2019-01-19T13:59:03.718Z,17.7
2019-01-19T14:09:02.927Z,17.7
2019-01-19T14:19:02.137Z,17.8
2019-01-19T14:29:01.346Z,17.8
2019-01-19T14:39:00.558Z,17.8
2019-01-19T14:48:59.767Z,17.1
2019-01-19T14:58:58.985Z,17.6
2019-01-19T15:09:03.755Z,17.7
2019-01-19T15:18:57.460Z,17.6
2019-01-19T15:28:56.631Z,17.3
2019-01-19T15:38:55.842Z,17.1
2019-01-19T15:48:55.062Z,16.9
2019-01-19T15:58:54.280Z,16.8
2019-01-19T16:08:53.501Z,16.2
2019-01-19T16:18:52.718Z,15.9
2019-01-19T16:28:51.965Z,15.6
2019-01-19T16:38:51.161Z,15.4
2019-01-19T16:48:50.409Z,15
2019-01-19T16:58:49.608Z,14.6
2019-01-19T17:08:48.833Z,14.2
2019-01-19T17:18:48.058Z,13.6
2019-01-19T17:28:47.283Z,13.1
2019-01-19T17:38:46.510Z,12.9
2019-01-19T17:48:45.725Z,12.8
2019-01-19T17:58:44.947Z,12.4
2019-01-19T18:08:44.188Z,12.4
2019-01-19T18:18:43.394Z,12.4
2019-01-19T18:28:42.602Z,12.5
2019-01-19T18:38:41.856Z,12.4
2019-01-19T18:48:41.038Z,12.4
2019-01-19T18:58:40.245Z,12.4
2019-01-19T19:08:39.469Z,12.5
2019-01-19T19:18:38.677Z,12.6
2019-01-19T19:28:37.895Z,12.6
2019-01-19T19:38:37.113Z,12.6
2019-01-19T19:48:36.337Z,12.6
2019-01-19T19:58:35.556Z,12.5
2019-01-19T20:08:34.773Z,12.5
2019-01-19T20:18:33.999Z,12.4
2019-01-19T20:28:33.215Z,12.4
2019-01-19T20:38:32.435Z,12.4
2019-01-19T20:48:31.702Z,12.4
2019-01-19T20:58:30.871Z,12.4
2019-01-19T21:08:30.085Z,12.1
2019-01-19T21:18:29.298Z,12.3
2019-01-19T21:28:28.513Z,12.3
2019-01-19T21:38:27.727Z,12.3
2019-01-19T21:48:26.942Z,12.3
2019-01-19T21:58:26.157Z,12.3
2019-01-19T22:08:25.373Z,12.3
2019-01-19T22:18:24.588Z,12.3
2019-01-19T22:28:23.797Z,12.3
2019-01-19T22:38:23.010Z,12.3
2019-01-19T22:48:22.219Z,12.2
2019-01-19T22:58:21.429Z,12.2
2019-01-19T23:08:20.639Z,12.2
2019-01-19T23:18:19.849Z,12.2
2019-01-19T23:28:19.061Z,12.2
2019-01-19T23:38:18.271Z,12.2
2019-01-19T23:48:17.530Z,12.2
2019-01-19T23:58:16.691Z,12.2
